Terminal Aerodrome Forecast
Issued by NWS Sterling, VA

Home | Current Version | Previous Version | Text Only | Print | Product List | Glossary On
Versions: 1 2 3 4 5 6 7 8 9 10 11 12 13 14
000
FTUS41 KLWX 121100
TAFCHO
TAF
KCHO 121137Z 1212/1312 VRB03KT 5SM BR BKN100
     FM121230 19004KT P6SM SCT090
     FM121800 18007KT P6SM BKN050
     FM130400 19004KT P6SM BKN070=

USA.gov is the U.S. government's official web portal to all federal, state and local government web resources and services.